sensor_id;sensor_type;location;lat;lon;timestamp;pressure;altitude;pressure_sealevel;temperature;humidity
38812;BME280;24553;51.640;-0.752;2022-08-01T00:02:00;101157.94;;;17.73;100.00
38812;BME280;24553;51.640;-0.752;2022-08-01T00:04:26;101157.94;;;17.73;100.00
38812;BME280;24553;51.640;-0.752;2022-08-01T00:06:51;101156.97;;;17.67;100.00
38812;BME280;24553;51.640;-0.752;2022-08-01T00:09:16;101153.31;;;17.61;100.00
38812;BME280;24553;51.640;-0.752;2022-08-01T00:11:42;101161.34;;;17.61;100.00
38812;BME280;24553;51.640;-0.752;2022-08-01T00:14:07;101157.03;;;17.60;100.00
38812;BME280;24553;51.640;-0.752;2022-08-01T00:16:35;101153.16;;;17.56;100.00
38812;BME280;24553;51.640;-0.752;2022-08-01T00:19:00;101152.75;;;17.53;100.00
38812;BME280;24553;51.640;-0.752;2022-08-01T00:21:25;101144.34;;;17.49;100.00
38812;BME280;24553;51.640;-0.752;2022-08-01T00:23:51;101149.56;;;17.44;100.00
38812;BME280;24553;51.640;-0.752;2022-08-01T00:26:16;101153.28;;;17.43;100.00
38812;BME280;24553;51.640;-0.752;2022-08-01T00:28:41;101156.97;;;17.42;100.00
38812;BME280;24553;51.640;-0.752;2022-08-01T00:31:07;101162.97;;;17.44;100.00
38812;BME280;24553;51.640;-0.752;2022-08-01T00:33:33;101156.78;;;17.43;100.00
38812;BME280;24553;51.640;-0.752;2022-08-01T00:35:58;101154.31;;;17.42;100.00
38812;BME280;24553;51.640;-0.752;2022-08-01T00:38:23;101156.41;;;17.40;100.00
38812;BME280;24553;51.640;-0.752;2022-08-01T00:40:49;101159.09;;;17.40;100.00
38812;BME280;24553;51.640;-0.752;2022-08-01T00:43:14;101157.66;;;17.37;100.00
38812;BME280;24553;51.640;-0.752;2022-08-01T00:45:40;101158.69;;;17.36;100.00
38812;BME280;24553;51.640;-0.752;2022-08-01T00:48:05;101159.75;;;17.35;100.00
38812;BME280;24553;51.640;-0.752;2022-08-01T00:50:31;101155.63;;;17.33;100.00
38812;BME280;24553;51.640;-0.752;2022-08-01T00:52:58;101155.84;;;17.31;100.00
38812;BME280;24553;51.640;-0.752;2022-08-01T00:55:23;101167.44;;;17.25;100.00
38812;BME280;24553;51.640;-0.752;2022-08-01T00:57:49;101165.41;;;17.20;100.00
38812;BME280;24553;51.640;-0.752;2022-08-01T01:00:15;101166.22;;;17.21;100.00
38812;BME280;24553;51.640;-0.752;2022-08-01T01:02:40;101169.53;;;17.23;100.00
38812;BME280;24553;51.640;-0.752;2022-08-01T01:05:06;101169.31;;;17.25;100.00
38812;BME280;24553;51.640;-0.752;2022-08-01T01:07:36;101175.50;;;17.25;100.00
38812;BME280;24553;51.640;-0.752;2022-08-01T01:10:29;101175.25;;;17.27;100.00
38812;BME280;24553;51.640;-0.752;2022-08-01T01:13:14;101171.94;;;17.31;100.00
38812;BME280;24553;51.640;-0.752;2022-08-01T01:16:00;101173.78;;;17.31;100.00
38812;BME280;24553;51.640;-0.752;2022-08-01T01:18:34;101169.47;;;17.30;100.00
38812;BME280;24553;51.640;-0.752;2022-08-01T01:26:52;101163.72;;;17.26;100.00
38812;BME280;24553;51.640;-0.752;2022-08-01T01:29:25;101172.00;;;17.25;100.00
38812;BME280;24553;51.640;-0.752;2022-08-01T01:31:59;101169.31;;;17.25;100.00
38812;BME280;24553;51.640;-0.752;2022-08-01T01:34:28;101162.53;;;17.22;100.00
38812;BME280;24553;51.640;-0.752;2022-08-01T01:36:56;101160.25;;;17.19;100.00
38812;BME280;24553;51.640;-0.752;2022-08-01T01:39:24;101158.84;;;17.16;100.00
38812;BME280;24553;51.640;-0.752;2022-08-01T01:41:53;101166.50;;;17.13;100.00
38812;BME280;24553;51.640;-0.752;2022-08-01T01:44:20;101169.19;;;17.13;100.00
38812;BME280;24553;51.640;-0.752;2022-08-01T01:46:46;101166.72;;;17.11;100.00
38812;BME280;24553;51.640;-0.752;2022-08-01T01:49:13;101159.72;;;17.10;100.00
38812;BME280;24553;51.640;-0.752;2022-08-01T01:51:40;101160.53;;;17.11;100.00
38812;BME280;24553;51.640;-0.752;2022-08-01T01:54:08;101157.25;;;17.09;100.00
38812;BME280;24553;51.640;-0.752;2022-08-01T01:56:35;101149.44;;;17.07;100.00
38812;BME280;24553;51.640;-0.752;2022-08-01T01:59:15;101151.06;;;17.08;100.00
38812;BME280;24553;51.640;-0.752;2022-08-01T02:01:44;101156.69;;;17.07;100.00
38812;BME280;24553;51.640;-0.752;2022-08-01T02:04:12;101155.41;;;17.09;100.00
38812;BME280;24553;51.640;-0.752;2022-08-01T02:06:38;101157.03;;;17.10;100.00
38812;BME280;24553;51.640;-0.752;2022-08-01T02:09:04;101147.38;;;17.09;100.00
38812;BME280;24553;51.640;-0.752;2022-08-01T02:11:30;101152.75;;;17.09;100.00
38812;BME280;24553;51.640;-0.752;2022-08-01T02:13:58;101149.22;;;17.09;100.00
38812;BME280;24553;51.640;-0.752;2022-08-01T02:16:29;101147.16;;;17.11;100.00
38812;BME280;24553;51.640;-0.752;2022-08-01T02:18:56;101147.97;;;17.11;100.00
38812;BME280;24553;51.640;-0.752;2022-08-01T02:21:30;101149.22;;;17.09;100.00
38812;BME280;24553;51.640;-0.752;2022-08-01T02:24:04;101149.44;;;17.07;100.00
38812;BME280;24553;51.640;-0.752;2022-08-01T02:26:34;101150.47;;;17.06;100.00
38812;BME280;24553;51.640;-0.752;2022-08-01T02:29:06;101141.63;;;17.06;100.00
38812;BME280;24553;51.640;-0.752;2022-08-01T02:31:35;101134.63;;;17.05;100.00
38812;BME280;24553;51.640;-0.752;2022-08-01T02:34:04;101142.66;;;17.05;100.00
38812;BME280;24553;51.640;-0.752;2022-08-01T02:36:33;101146.59;;;17.02;100.00
38812;BME280;24553;51.640;-0.752;2022-08-01T02:39:08;101132.22;;;16.96;100.00
38812;BME280;24553;51.640;-0.752;2022-08-01T02:41:36;101143.16;;;16.95;100.00
38812;BME280;24553;51.640;-0.752;2022-08-01T02:44:05;101135.91;;;16.95;100.00
38812;BME280;24553;51.640;-0.752;2022-08-01T02:46:39;101135.91;;;16.95;100.00
38812;BME280;24553;51.640;-0.752;2022-08-01T02:49:08;101134.28;;;16.94;100.00
38812;BME280;24553;51.640;-0.752;2022-08-01T02:51:35;101139.25;;;16.91;100.00
38812;BME280;24553;51.640;-0.752;2022-08-01T02:54:02;101137.63;;;16.90;100.00
38812;BME280;24553;51.640;-0.752;2022-08-01T02:56:31;101134.31;;;16.88;100.00
38812;BME280;24553;51.640;-0.752;2022-08-01T02:59:09;101126.34;;;16.81;100.00
38812;BME280;24553;51.640;-0.752;2022-08-01T03:01:37;101126.97;;;16.76;100.00
38812;BME280;24553;51.640;-0.752;2022-08-01T03:04:04;101134.81;;;16.71;100.00
38812;BME280;24553;51.640;-0.752;2022-08-01T03:06:31;101129.28;;;16.66;100.00
38812;BME280;24553;51.640;-0.752;2022-08-01T03:08:58;101132.00;;;16.60;100.00
38812;BME280;24553;51.640;-0.752;2022-08-01T03:11:25;101136.53;;;16.59;100.00
38812;BME280;24553;51.640;-0.752;2022-08-01T03:13:53;101146.81;;;16.62;100.00
38812;BME280;24553;51.640;-0.752;2022-08-01T03:16:21;101151.16;;;16.63;100.00
38812;BME280;24553;51.640;-0.752;2022-08-01T03:18:48;101151.75;;;16.65;100.00
38812;BME280;24553;51.640;-0.752;2022-08-01T03:21:15;101160.38;;;16.67;100.00
38812;BME280;24553;51.640;-0.752;2022-08-01T03:23:42;101150.72;;;16.66;100.00
38812;BME280;24553;51.640;-0.752;2022-08-01T03:26:09;101145.34;;;16.66;100.00
38812;BME280;24553;51.640;-0.752;2022-08-01T03:28:36;101146.41;;;16.65;100.00
38812;BME280;24553;51.640;-0.752;2022-08-01T03:31:02;101141.06;;;16.65;100.00
38812;BME280;24553;51.640;-0.752;2022-08-01T03:33:28;101147.84;;;16.68;100.00
38812;BME280;24553;51.640;-0.752;2022-08-01T03:35:54;101147.84;;;16.68;100.00
38812;BME280;24553;51.640;-0.752;2022-08-01T03:38:25;101147.00;;;16.67;100.00
38812;BME280;24553;51.640;-0.752;2022-08-01T03:40:59;101141.88;;;16.66;100.00
38812;BME280;24553;51.640;-0.752;2022-08-01T03:43:34;101136.09;;;16.62;100.00
38812;BME280;24553;51.640;-0.752;2022-08-01T03:46:05;101148.28;;;16.58;100.00
38812;BME280;24553;51.640;-0.752;2022-08-01T03:48:36;101139.66;;;16.56;100.00
38812;BME280;24553;51.640;-0.752;2022-08-01T03:51:04;101145.81;;;16.56;100.00
38812;BME280;24553;51.640;-0.752;2022-08-01T03:53:31;101138.22;;;16.53;100.00
38812;BME280;24553;51.640;-0.752;2022-08-01T03:56:00;101141.09;;;16.52;100.00
38812;BME280;24553;51.640;-0.752;2022-08-01T03:58:27;101138.25;;;16.47;100.00
38812;BME280;24553;51.640;-0.752;2022-08-01T04:00:53;101137.25;;;16.41;100.00
38812;BME280;24553;51.640;-0.752;2022-08-01T04:03:19;101141.16;;;16.39;100.00
38812;BME280;24553;51.640;-0.752;2022-08-01T04:05:45;101141.16;;;16.39;100.00
38812;BME280;24553;51.640;-0.752;2022-08-01T04:08:10;101137.88;;;16.36;100.00
38812;BME280;24553;51.640;-0.752;2022-08-01T04:10:36;101133.56;;;16.35;100.00
38812;BME280;24553;51.640;-0.752;2022-08-01T04:13:02;101128.66;;;16.32;100.00
38812;BME280;24553;51.640;-0.752;2022-08-01T04:15:27;101140.59;;;16.30;100.00
38812;BME280;24553;51.640;-0.752;2022-08-01T04:17:53;101137.13;;;16.29;100.00
38812;BME280;24553;51.640;-0.752;2022-08-01T04:20:19;101143.66;;;16.33;100.00
38812;BME280;24553;51.640;-0.752;2022-08-01T04:22:44;101143.22;;;16.36;100.00
38812;BME280;24553;51.640;-0.752;2022-08-01T04:25:32;101150.00;;;16.39;100.00
38812;BME280;24553;51.640;-0.752;2022-08-01T04:28:00;101143.22;;;16.36;100.00
38812;BME280;24553;51.640;-0.752;2022-08-01T04:30:31;101154.78;;;16.37;100.00
38812;BME280;24553;51.640;-0.752;2022-08-01T04:33:00;101149.44;;;16.37;100.00
38812;BME280;24553;51.640;-0.752;2022-08-01T04:35:26;101150.69;;;16.34;100.00
38812;BME280;24553;51.640;-0.752;2022-08-01T04:37:53;101143.06;;;16.31;100.00
38812;BME280;24553;51.640;-0.752;2022-08-01T04:40:19;101148.03;;;16.28;100.00
38812;BME280;24553;51.640;-0.752;2022-08-01T04:42:47;101144.97;;;16.24;100.00
38812;BME280;24553;51.640;-0.752;2022-08-01T04:45:14;101142.91;;;16.20;100.00
38812;BME280;24553;51.640;-0.752;2022-08-01T04:47:41;101143.13;;;16.18;100.00
38812;BME280;24553;51.640;-0.752;2022-08-01T04:50:08;101144.59;;;16.14;100.00
38812;BME280;24553;51.640;-0.752;2022-08-01T04:52:35;101147.88;;;16.09;100.00
38812;BME280;24553;51.640;-0.752;2022-08-01T04:55:02;101148.31;;;16.06;100.00
38812;BME280;24553;51.640;-0.752;2022-08-01T04:57:27;101151.19;;;16.05;100.00
38812;BME280;24553;51.640;-0.752;2022-08-01T04:59:53;101156.53;;;16.05;100.00
38812;BME280;24553;51.640;-0.752;2022-08-01T05:02:22;101160.88;;;16.06;100.00
38812;BME280;24553;51.640;-0.752;2022-08-01T05:04:47;101159.41;;;16.10;100.00
38812;BME280;24553;51.640;-0.752;2022-08-01T05:07:13;101172.97;;;16.15;100.00
38812;BME280;24553;51.640;-0.752;2022-08-01T05:09:40;101170.47;;;16.20;100.00
38812;BME280;24553;51.640;-0.752;2022-08-01T05:12:11;101180.56;;;16.25;100.00
38812;BME280;24553;51.640;-0.752;2022-08-01T05:14:37;101173.75;;;16.29;100.00
38812;BME280;24553;51.640;-0.752;2022-08-01T05:17:03;101177.44;;;16.34;100.00
38812;BME280;24553;51.640;-0.752;2022-08-01T05:19:30;101165.50;;;16.37;100.00
38812;BME280;24553;51.640;-0.752;2022-08-01T05:21:57;101170.63;;;16.39;100.00
38812;BME280;24553;51.640;-0.752;2022-08-01T05:24:23;101172.84;;;16.42;100.00
38812;BME280;24553;51.640;-0.752;2022-08-01T05:26:49;101168.53;;;16.47;100.00
38812;BME280;24553;51.640;-0.752;2022-08-01T05:29:15;101170.34;;;16.53;100.00
38812;BME280;24553;51.640;-0.752;2022-08-01T05:31:40;101164.97;;;16.60;100.00
38812;BME280;24553;51.640;-0.752;2022-08-01T05:34:06;101168.59;;;16.72;100.00
38812;BME280;24553;51.640;-0.752;2022-08-01T05:36:31;101168.94;;;16.89;100.00
38812;BME280;24553;51.640;-0.752;2022-08-01T05:38:57;101166.97;;;17.03;100.00
38812;BME280;24553;51.640;-0.752;2022-08-01T05:41:22;101166.72;;;17.11;100.00
38812;BME280;24553;51.640;-0.752;2022-08-01T05:43:47;101168.81;;;17.09;100.00
38812;BME280;24553;51.640;-0.752;2022-08-01T05:46:13;101167.94;;;17.15;100.00
38812;BME280;24553;51.640;-0.752;2022-08-01T05:48:38;101173.84;;;17.24;100.00
38812;BME280;24553;51.640;-0.752;2022-08-01T05:51:04;101157.91;;;17.29;100.00
38812;BME280;24553;51.640;-0.752;2022-08-01T05:53:29;101160.38;;;17.31;100.00
38812;BME280;24553;51.640;-0.752;2022-08-01T05:55:55;101160.03;;;17.27;100.00
38812;BME280;24553;51.640;-0.752;2022-08-01T05:58:20;101161.81;;;17.33;100.00
38812;BME280;24553;51.640;-0.752;2022-08-01T06:00:46;101157.91;;;17.29;100.00
38812;BME280;24553;51.640;-0.752;2022-08-01T06:03:11;101166.84;;;17.23;100.00
38812;BME280;24553;51.640;-0.752;2022-08-01T06:05:37;101168.72;;;17.22;100.00
38812;BME280;24553;51.640;-0.752;2022-08-01T06:08:03;101160.50;;;17.17;100.00
38812;BME280;24553;51.640;-0.752;2022-08-01T06:10:28;101157.84;;;17.11;100.00
38812;BME280;24553;51.640;-0.752;2022-08-01T06:12:54;101166.88;;;17.16;100.00
38812;BME280;24553;51.640;-0.752;2022-08-01T06:15:19;101167.28;;;17.20;100.00
38812;BME280;24553;51.640;-0.752;2022-08-01T06:17:44;101166.69;;;17.18;100.00
38812;BME280;24553;51.640;-0.752;2022-08-01T06:20:10;101170.34;;;17.23;100.00
38812;BME280;24553;51.640;-0.752;2022-08-01T06:22:35;101165.75;;;17.31;100.00
38812;BME280;24553;51.640;-0.752;2022-08-01T06:25:01;101177.28;;;17.31;100.00
38812;BME280;24553;51.640;-0.752;2022-08-01T06:27:26;101170.94;;;17.26;100.00
38812;BME280;24553;51.640;-0.752;2022-08-01T06:29:52;101174.06;;;17.22;100.00
38812;BME280;24553;51.640;-0.752;2022-08-01T06:32:21;101175.50;;;17.25;100.00
38812;BME280;24553;51.640;-0.752;2022-08-01T06:34:47;101169.06;;;17.26;100.00
38812;BME280;24553;51.640;-0.752;2022-08-01T06:37:13;101178.09;;;17.32;100.00
38812;BME280;24553;51.640;-0.752;2022-08-01T06:39:39;101180.38;;;17.35;100.00
38812;BME280;24553;51.640;-0.752;2022-08-01T06:42:05;101177.94;;;17.27;100.00
38812;BME280;24553;51.640;-0.752;2022-08-01T06:44:30;101175.50;;;17.25;100.00
38812;BME280;24553;51.640;-0.752;2022-08-01T06:46:56;101178.97;;;17.26;100.00
38812;BME280;24553;51.640;-0.752;2022-08-01T06:49:23;101177.34;;;17.25;100.00
38812;BME280;24553;51.640;-0.752;2022-08-01T06:51:49;101179.75;;;17.33;100.00
38812;BME280;24553;51.640;-0.752;2022-08-01T06:54:14;101172.66;;;17.45;100.00
38812;BME280;24553;51.640;-0.752;2022-08-01T06:56:41;101171.75;;;17.51;100.00
38812;BME280;24553;51.640;-0.752;2022-08-01T06:59:06;101170.50;;;17.54;100.00
38812;BME280;24553;51.640;-0.752;2022-08-01T07:01:32;101171.03;;;17.62;100.00
38812;BME280;24553;51.640;-0.752;2022-08-01T07:03:57;101170.00;;;17.63;100.00
38812;BME280;24553;51.640;-0.752;2022-08-01T07:06:23;101167.50;;;17.69;100.00
38812;BME280;24553;51.640;-0.752;2022-08-01T07:08:49;101173.66;;;17.69;100.00
38812;BME280;24553;51.640;-0.752;2022-08-01T07:11:14;101171.13;;;17.74;100.00
38812;BME280;24553;51.640;-0.752;2022-08-01T07:13:40;101173.78;;;17.81;100.00
38812;BME280;24553;51.640;-0.752;2022-08-01T07:16:05;101174.91;;;17.92;100.00
38812;BME280;24553;51.640;-0.752;2022-08-01T07:18:31;101170.06;;;18.00;100.00
38812;BME280;24553;51.640;-0.752;2022-08-01T07:20:56;101171.63;;;18.08;100.00
38812;BME280;24553;51.640;-0.752;2022-08-01T07:23:21;101161.56;;;18.03;100.00
38812;BME280;24553;51.640;-0.752;2022-08-01T07:25:47;101157.91;;;18.16;100.00
38812;BME280;24553;51.640;-0.752;2022-08-01T07:28:14;101153.81;;;18.14;100.00
38812;BME280;24553;51.640;-0.752;2022-08-01T07:30:40;101158.88;;;18.22;100.00
38812;BME280;24553;51.640;-0.752;2022-08-01T07:33:07;101157.44;;;18.19;100.00
38812;BME280;24553;51.640;-0.752;2022-08-01T07:35:33;101153.38;;;17.98;100.00
38812;BME280;24553;51.640;-0.752;2022-08-01T07:37:58;101151.59;;;17.92;100.00
38812;BME280;24553;51.640;-0.752;2022-08-01T07:40:23;101157.00;;;17.85;100.00
38812;BME280;24553;51.640;-0.752;2022-08-01T07:42:49;101163.19;;;17.86;100.00
38812;BME280;24553;51.640;-0.752;2022-08-01T07:45:14;101169.00;;;17.83;100.00
38812;BME280;24553;51.640;-0.752;2022-08-01T07:47:40;101169.75;;;17.90;100.00
38812;BME280;24553;51.640;-0.752;2022-08-01T07:50:06;101168.81;;;18.03;100.00
38812;BME280;24553;51.640;-0.752;2022-08-01T07:52:32;101172.53;;;18.02;100.00
38812;BME280;24553;51.640;-0.752;2022-08-01T07:54:58;101177.91;;;18.02;100.00
38812;BME280;24553;51.640;-0.752;2022-08-01T07:57:24;101177.50;;;17.98;100.00
38812;BME280;24553;51.640;-0.752;2022-08-01T07:59:50;101171.69;;;18.01;100.00
38812;BME280;24553;51.640;-0.752;2022-08-01T08:02:15;101178.09;;;18.19;100.00
38812;BME280;24553;51.640;-0.752;2022-08-01T08:04:41;101168.47;;;18.29;100.00
38812;BME280;24553;51.640;-0.752;2022-08-01T08:07:06;101174.13;;;18.40;100.00
38812;BME280;24553;51.640;-0.752;2022-08-01T08:09:32;101173.31;;;18.39;100.00
38812;BME280;24553;51.640;-0.752;2022-08-01T08:11:58;101178.34;;;18.36;100.00
38812;BME280;24553;51.640;-0.752;2022-08-01T08:14:23;101181.38;;;18.39;100.00
38812;BME280;24553;51.640;-0.752;2022-08-01T08:16:49;101178.38;;;18.47;100.00
38812;BME280;24553;51.640;-0.752;2022-08-01T08:19:15;101172.63;;;18.62;100.00
38812;BME280;24553;51.640;-0.752;2022-08-01T08:21:41;101172.50;;;18.69;100.00
38812;BME280;24553;51.640;-0.752;2022-08-01T08:24:10;101180.69;;;18.74;100.00
38812;BME280;24553;51.640;-0.752;2022-08-01T08:26:45;101180.34;;;18.70;100.00
38812;BME280;24553;51.640;-0.752;2022-08-01T08:29:11;101185.78;;;18.64;100.00
38812;BME280;24553;51.640;-0.752;2022-08-01T08:31:37;101189.38;;;18.76;100.00
38812;BME280;24553;51.640;-0.752;2022-08-01T08:34:02;101180.84;;;18.98;100.00
38812;BME280;24553;51.640;-0.752;2022-08-01T08:36:28;101177.81;;;19.17;100.00
38812;BME280;24553;51.640;-0.752;2022-08-01T08:38:53;101172.69;;;19.16;100.00
38812;BME280;24553;51.640;-0.752;2022-08-01T08:41:19;101170.09;;;19.09;100.00
38812;BME280;24553;51.640;-0.752;2022-08-01T08:43:45;101170.56;;;19.06;100.00
38812;BME280;24553;51.640;-0.752;2022-08-01T08:46:11;101157.47;;;19.10;100.00
38812;BME280;24553;51.640;-0.752;2022-08-01T08:48:37;101154.22;;;19.20;100.00
38812;BME280;24553;51.640;-0.752;2022-08-01T08:51:04;101149.53;;;19.38;100.00
38812;BME280;24553;51.640;-0.752;2022-08-01T08:53:31;101156.25;;;19.71;100.00
38812;BME280;24553;51.640;-0.752;2022-08-01T08:55:58;101149.91;;;20.01;100.00
38812;BME280;24553;51.640;-0.752;2022-08-01T08:58:26;101144.25;;;20.02;100.00
38812;BME280;24553;51.640;-0.752;2022-08-01T09:00:53;101145.78;;;20.10;100.00
38812;BME280;24553;51.640;-0.752;2022-08-01T09:03:19;101146.56;;;20.11;100.00
38812;BME280;24553;51.640;-0.752;2022-08-01T09:05:44;101143.78;;;20.05;100.00
38812;BME280;24553;51.640;-0.752;2022-08-01T09:08:10;101145.38;;;20.18;100.00
38812;BME280;24553;51.640;-0.752;2022-08-01T09:10:35;101145.56;;;20.40;100.00
38812;BME280;24553;51.640;-0.752;2022-08-01T09:13:10;101143.28;;;20.49;100.00
38812;BME280;24553;51.640;-0.752;2022-08-01T09:15:48;101149.28;;;20.39;100.00
38812;BME280;24553;51.640;-0.752;2022-08-01T09:18:35;101151.06;;;20.34;100.00
38812;BME280;24553;51.640;-0.752;2022-08-01T09:21:16;101144.94;;;20.21;100.00
38812;BME280;24553;51.640;-0.752;2022-08-01T09:23:53;101141.88;;;20.18;100.00
38812;BME280;24553;51.640;-0.752;2022-08-01T09:26:22;101158.03;;;20.18;100.00
38812;BME280;24553;51.640;-0.752;2022-08-01T09:28:52;101151.03;;;20.05;100.00
38812;BME280;24553;51.640;-0.752;2022-08-01T09:31:18;101151.41;;;19.97;100.00
38812;BME280;24553;51.640;-0.752;2022-08-01T09:33:54;101155.41;;;19.82;100.00
38812;BME280;24553;51.640;-0.752;2022-08-01T09:36:25;101155.22;;;19.72;100.00
38812;BME280;24553;51.640;-0.752;2022-08-01T09:38:52;101148.19;;;19.83;100.00
38812;BME280;24553;51.640;-0.752;2022-08-01T09:41:29;101160.03;;;20.11;100.00
38812;BME280;24553;51.640;-0.752;2022-08-01T09:43:55;101149.56;;;20.38;100.00
38812;BME280;24553;51.640;-0.752;2022-08-01T09:46:20;101161.09;;;20.50;100.00
38812;BME280;24553;51.640;-0.752;2022-08-01T09:49:03;101158.28;;;20.57;100.00
38812;BME280;24553;51.640;-0.752;2022-08-01T09:51:38;101160.13;;;20.68;100.00
38812;BME280;24553;51.640;-0.752;2022-08-01T09:54:06;101153.34;;;20.65;100.00
38812;BME280;24553;51.640;-0.752;2022-08-01T09:56:39;101145.84;;;20.84;100.00
38812;BME280;24553;51.640;-0.752;2022-08-01T09:59:05;101148.72;;;20.95;100.00
38812;BME280;24553;51.640;-0.752;2022-08-01T10:01:51;101152.78;;;20.80;100.00
38812;BME280;24553;51.640;-0.752;2022-08-01T10:04:20;101156.00;;;20.94;100.00
38812;BME280;24553;51.640;-0.752;2022-08-01T10:06:48;101145.31;;;20.99;100.00
38812;BME280;24553;51.640;-0.752;2022-08-01T10:09:27;101150.13;;;20.97;100.00
38812;BME280;24553;51.640;-0.752;2022-08-01T10:11:55;101142.94;;;20.86;100.00
38812;BME280;24553;51.640;-0.752;2022-08-01T10:14:22;101152.22;;;20.78;100.00
38812;BME280;24553;51.640;-0.752;2022-08-01T10:16:49;101156.13;;;20.71;100.00
38812;BME280;24553;51.640;-0.752;2022-08-01T10:19:16;101156.50;;;20.62;100.00
38812;BME280;24553;51.640;-0.752;2022-08-01T10:21:42;101149.66;;;20.72;100.00
38812;BME280;24553;51.640;-0.752;2022-08-01T10:24:10;101151.75;;;20.81;100.00
38812;BME280;24553;51.640;-0.752;2022-08-01T10:26:37;101150.75;;;20.87;100.00
38812;BME280;24553;51.640;-0.752;2022-08-01T10:29:04;101144.22;;;20.83;100.00
38812;BME280;24553;51.640;-0.752;2022-08-01T10:31:30;101150.66;;;20.82;100.00
38812;BME280;24553;51.640;-0.752;2022-08-01T10:33:58;101148.22;;;20.81;100.00
38812;BME280;24553;51.640;-0.752;2022-08-01T10:36:24;101142.25;;;20.79;100.00
38812;BME280;24553;51.640;-0.752;2022-08-01T10:38:50;101134.19;;;20.96;100.00
38812;BME280;24553;51.640;-0.752;2022-08-01T10:41:18;101143.16;;;21.01;100.00
38812;BME280;24553;51.640;-0.752;2022-08-01T10:43:44;101139.97;;;21.21;100.00
38812;BME280;24553;51.640;-0.752;2022-08-01T10:46:09;101121.22;;;21.65;100.00
38812;BME280;24553;51.640;-0.752;2022-08-01T10:48:55;101122.84;;;22.05;100.00
38812;BME280;24553;51.640;-0.752;2022-08-01T10:51:22;101133.69;;;22.10;100.00
38812;BME280;24553;51.640;-0.752;2022-08-01T10:53:53;101132.13;;;21.92;100.00
38812;BME280;24553;51.640;-0.752;2022-08-01T10:56:19;101123.47;;;21.51;100.00
38812;BME280;24553;51.640;-0.752;2022-08-01T10:58:46;101128.81;;;21.46;100.00
38812;BME280;24553;51.640;-0.752;2022-08-01T11:01:29;101133.59;;;21.61;100.00
38812;BME280;24553;51.640;-0.752;2022-08-01T11:04:04;101127.56;;;21.54;100.00
38812;BME280;24553;51.640;-0.752;2022-08-01T11:09:00;101138.94;;;21.39;100.00
38812;BME280;24553;51.640;-0.752;2022-08-01T11:11:26;101136.06;;;21.29;100.00
38812;BME280;24553;51.640;-0.752;2022-08-01T11:16:29;101127.28;;;21.72;100.00
38812;BME280;24553;51.640;-0.752;2022-08-01T11:18:55;101130.59;;;22.02;100.00
38812;BME280;24553;51.640;-0.752;2022-08-01T11:21:20;101122.81;;;22.49;100.00
38812;BME280;24553;51.640;-0.752;2022-08-01T11:23:50;101110.78;;;23.26;100.00
38812;BME280;24553;51.640;-0.752;2022-08-01T11:26:19;101114.16;;;23.97;100.00
38812;BME280;24553;51.640;-0.752;2022-08-01T11:29:10;101113.97;;;24.34;100.00
38812;BME280;24553;51.640;-0.752;2022-08-01T11:31:32;101115.06;;;24.28;100.00
38812;BME280;24553;51.640;-0.752;2022-08-01T11:33:58;101112.75;;;23.89;100.00
38812;BME280;24553;51.640;-0.752;2022-08-01T11:36:24;101108.97;;;23.42;100.00
38812;BME280;24553;51.640;-0.752;2022-08-01T11:41:31;101107.44;;;23.62;100.00
38812;BME280;24553;51.640;-0.752;2022-08-01T11:46:55;101101.91;;;23.84;100.00
38812;BME280;24553;51.640;-0.752;2022-08-01T11:52:19;101087.06;;;24.02;100.00
38812;BME280;24553;51.640;-0.752;2022-08-01T11:54:50;101089.56;;;23.56;100.00
38812;BME280;24553;51.640;-0.752;2022-08-01T11:57:21;101093.50;;;23.33;100.00
38812;BME280;24553;51.640;-0.752;2022-08-01T11:59:54;101094.22;;;22.85;100.00
38812;BME280;24553;51.640;-0.752;2022-08-01T12:02:23;101089.84;;;22.84;100.00
38812;BME280;24553;51.640;-0.752;2022-08-01T12:07:23;101087.69;;;22.81;100.00
38812;BME280;24553;51.640;-0.752;2022-08-01T12:10:15;101084.41;;;23.54;100.00
38812;BME280;24553;51.640;-0.752;2022-08-01T12:12:52;101087.31;;;23.95;100.00
38812;BME280;24553;51.640;-0.752;2022-08-01T12:15:23;101086.53;;;23.42;100.00
38812;BME280;24553;51.640;-0.752;2022-08-01T12:18:00;101088.28;;;23.68;100.00
38812;BME280;24553;51.640;-0.752;2022-08-01T12:20:31;101089.88;;;24.43;100.00
38812;BME280;24553;51.640;-0.752;2022-08-01T12:22:59;101076.66;;;24.87;100.00
38812;BME280;24553;51.640;-0.752;2022-08-01T12:25:24;101070.91;;;25.14;100.00
38812;BME280;24553;51.640;-0.752;2022-08-01T12:27:50;101073.63;;;25.04;100.00
38812;BME280;24553;51.640;-0.752;2022-08-01T12:30:18;101072.00;;;25.08;100.00
38812;BME280;24553;51.640;-0.752;2022-08-01T12:32:45;101063.63;;;25.20;100.00
38812;BME280;24553;51.640;-0.752;2022-08-01T12:35:13;101064.97;;;25.02;100.00
38812;BME280;24553;51.640;-0.752;2022-08-01T12:37:44;101060.88;;;25.35;100.00
38812;BME280;24553;51.640;-0.752;2022-08-01T12:40:19;101054.78;;;25.69;100.00
38812;BME280;24553;51.640;-0.752;2022-08-01T12:42:47;101035.56;;;26.10;100.00
38812;BME280;24553;51.640;-0.752;2022-08-01T12:45:15;101033.41;;;26.46;100.00
38812;BME280;24553;51.640;-0.752;2022-08-01T12:47:42;101036.09;;;26.51;100.00
38812;BME280;24553;51.640;-0.752;2022-08-01T12:50:13;101041.91;;;25.95;100.00
38812;BME280;24553;51.640;-0.752;2022-08-01T12:52:39;101037.88;;;25.87;100.00
38812;BME280;24553;51.640;-0.752;2022-08-01T12:55:18;101046.31;;;25.76;100.00
38812;BME280;24553;51.640;-0.752;2022-08-01T12:57:47;101027.69;;;26.08;100.00